createdAt,value
2017-08-19T00:00:10.882Z,69.86
2017-08-19T00:02:38.274Z,70.06
2017-08-19T00:05:05.663Z,69.96
2017-08-19T00:07:33.063Z,69.79
2017-08-19T00:10:00.447Z,69.70
2017-08-19T00:12:27.849Z,69.31
2017-08-19T00:14:55.236Z,69.08
2017-08-19T00:17:22.655Z,69.09
2017-08-19T00:19:50.039Z,68.23
2017-08-19T00:22:17.422Z,67.90
2017-08-19T00:24:44.830Z,68.16
2017-08-19T00:27:12.211Z,68.46
2017-08-19T00:29:39.607Z,68.23
2017-08-19T00:32:06.995Z,67.70
2017-08-19T00:34:34.396Z,67.63
2017-08-19T00:37:01.779Z,68.05
2017-08-19T00:39:29.192Z,68.34
2017-08-19T00:41:56.583Z,68.85
2017-08-19T00:44:23.977Z,68.91
2017-08-19T00:46:51.360Z,68.71
2017-08-19T00:49:18.754Z,68.60
2017-08-19T00:51:46.138Z,68.79
2017-08-19T00:54:13.522Z,68.74
2017-08-19T00:56:40.919Z,68.50
2017-08-19T00:59:08.320Z,67.85
2017-08-19T01:01:35.718Z,67.59
2017-08-19T01:04:03.115Z,67.06
2017-08-19T01:06:30.498Z,67.04
2017-08-19T01:08:57.903Z,66.71
2017-08-19T01:11:25.306Z,67.10
2017-08-19T01:13:52.706Z,66.86
2017-08-19T01:16:20.090Z,67.05
2017-08-19T01:18:47.482Z,66.69
2017-08-19T01:21:14.870Z,67.02
2017-08-19T01:23:42.258Z,67.47
2017-08-19T01:26:21.434Z,67.04
2017-08-19T01:28:48.834Z,67.24
2017-08-19T01:31:16.223Z,67.37
2017-08-19T01:33:43.611Z,66.75
2017-08-19T01:36:11.003Z,66.86
2017-08-19T01:38:38.393Z,66.88
2017-08-19T01:41:05.787Z,67.38
2017-08-19T01:43:33.199Z,67.37
2017-08-19T01:46:00.598Z,67.00
2017-08-19T01:48:27.987Z,67.51
2017-08-19T01:50:55.384Z,67.65
2017-08-19T01:53:22.772Z,67.44
2017-08-19T01:55:50.168Z,67.44
2017-08-19T01:58:17.555Z,67.19
2017-08-19T02:00:44.962Z,67.32
2017-08-19T02:03:12.354Z,67.37
2017-08-19T02:05:39.753Z,67.18
2017-08-19T02:08:07.146Z,68.06
2017-08-19T02:10:34.534Z,68.43
2017-08-19T02:13:01.930Z,68.44
2017-08-19T02:15:29.324Z,68.19
2017-08-19T02:17:56.765Z,68.26
2017-08-19T02:20:24.152Z,68.36
2017-08-19T02:22:51.547Z,68.12
2017-08-19T02:25:18.942Z,68.07
2017-08-19T02:27:46.327Z,68.62
2017-08-19T02:30:13.710Z,67.95
2017-08-19T02:32:41.106Z,68.03
2017-08-19T02:35:08.494Z,68.38
2017-08-19T02:37:35.892Z,68.25
2017-08-19T02:40:03.277Z,68.53
2017-08-19T02:42:30.674Z,68.27
2017-08-19T02:44:58.059Z,68.58
2017-08-19T02:47:25.450Z,68.25
2017-08-19T02:49:52.840Z,68.73
2017-08-19T02:52:20.247Z,68.54
2017-08-19T02:54:47.635Z,68.88
2017-08-19T02:57:15.020Z,69.11
2017-08-19T02:59:42.422Z,69.24
2017-08-19T03:02:09.825Z,69.57
2017-08-19T03:04:37.215Z,69.02
2017-08-19T03:07:04.606Z,69.46
2017-08-19T03:09:31.995Z,69.39
2017-08-19T03:11:59.383Z,69.21
2017-08-19T03:14:26.784Z,69.57
2017-08-19T03:16:54.168Z,69.47
2017-08-19T03:19:21.570Z,69.03
2017-08-19T03:21:48.958Z,68.81
2017-08-19T03:24:16.359Z,69.39
2017-08-19T03:26:43.974Z,69.22
2017-08-19T03:29:11.375Z,69.50
2017-08-19T03:31:38.763Z,68.85
2017-08-19T03:34:06.157Z,68.66
2017-08-19T03:36:33.556Z,68.64
2017-08-19T03:39:00.946Z,69.11
2017-08-19T03:41:28.343Z,69.30
2017-08-19T03:43:55.759Z,68.61
2017-08-19T03:46:23.152Z,68.50
2017-08-19T03:48:50.538Z,68.30
2017-08-19T03:51:17.939Z,68.04
2017-08-19T03:53:45.326Z,68.19
2017-08-19T03:56:12.719Z,67.66
2017-08-19T03:58:40.116Z,67.46
2017-08-19T04:01:07.530Z,67.55
2017-08-19T04:03:34.928Z,67.99
2017-08-19T04:06:02.327Z,67.99
2017-08-19T04:08:29.719Z,67.71
2017-08-19T04:10:57.118Z,67.40
2017-08-19T04:13:24.510Z,67.62
2017-08-19T04:15:51.911Z,67.60
2017-08-19T04:18:19.315Z,67.70
2017-08-19T04:20:46.715Z,68.24
2017-08-19T04:23:14.107Z,68.61
2017-08-19T04:25:41.507Z,67.95
2017-08-19T04:28:08.914Z,68.44
2017-08-19T04:30:36.313Z,68.57
2017-08-19T04:33:03.719Z,68.71
2017-08-19T04:35:31.123Z,69.26
2017-08-19T04:37:58.531Z,68.84
2017-08-19T04:40:25.923Z,69.35
2017-08-19T04:42:53.339Z,68.75
2017-08-19T04:45:20.732Z,69.38
2017-08-19T04:47:48.127Z,69.87
2017-08-19T04:50:15.518Z,69.79
2017-08-19T04:52:42.975Z,70.04
2017-08-19T04:55:10.351Z,70.34
2017-08-19T04:57:37.758Z,70.13
2017-08-19T05:00:05.150Z,70.19
2017-08-19T05:02:32.551Z,70.04
2017-08-19T05:04:59.956Z,69.90
2017-08-19T05:07:27.354Z,70.17
2017-08-19T05:09:54.747Z,69.73
2017-08-19T05:12:22.139Z,69.68
2017-08-19T05:14:49.526Z,69.64
2017-08-19T05:17:16.939Z,69.56
2017-08-19T05:19:44.335Z,69.54
2017-08-19T05:22:11.734Z,69.64
2017-08-19T05:24:39.126Z,70.00
2017-08-19T05:27:06.515Z,70.52
2017-08-19T05:29:33.921Z,71.38
2017-08-19T05:32:01.335Z,71.56
2017-08-19T05:34:28.735Z,71.29
2017-08-19T05:36:56.150Z,71.68
2017-08-19T05:39:23.742Z,71.99
2017-08-19T05:41:51.133Z,72.27
2017-08-19T05:44:18.742Z,73.27
2017-08-19T05:46:46.142Z,73.56
2017-08-19T05:49:13.555Z,73.75
2017-08-19T05:51:40.948Z,73.43
2017-08-19T05:54:08.359Z,74.12
2017-08-19T05:56:35.763Z,74.14
2017-08-19T05:59:03.172Z,73.60
2017-08-19T06:01:30.803Z,74.19
2017-08-19T06:03:58.195Z,74.32
2017-08-19T06:06:25.593Z,74.26
2017-08-19T06:08:52.988Z,74.00
2017-08-19T06:11:20.384Z,74.42
2017-08-19T06:13:47.793Z,74.62
2017-08-19T06:16:15.183Z,73.65
2017-08-19T06:18:42.605Z,73.35
2017-08-19T06:21:09.982Z,73.64
2017-08-19T06:23:37.402Z,73.71
2017-08-19T06:26:04.794Z,73.83
2017-08-19T06:28:32.182Z,73.72
2017-08-19T06:30:59.587Z,73.58
2017-08-19T06:33:27.226Z,73.54
2017-08-19T06:35:54.622Z,72.88
2017-08-19T06:38:22.027Z,73.27
2017-08-19T06:40:49.414Z,73.49
2017-08-19T06:43:16.807Z,74.04
2017-08-19T06:45:44.216Z,72.86
2017-08-19T06:48:11.627Z,72.84
2017-08-19T06:50:39.025Z,73.05
2017-08-19T06:53:06.428Z,72.58
2017-08-19T06:55:33.835Z,72.83
2017-08-19T06:58:01.231Z,72.55
2017-08-19T07:00:28.667Z,72.04
2017-08-19T07:02:56.063Z,72.47
2017-08-19T07:05:23.468Z,72.47
2017-08-19T07:07:50.866Z,72.25
2017-08-19T07:10:18.260Z,72.34
2017-08-19T07:12:45.674Z,72.47
2017-08-19T07:15:13.082Z,72.63
2017-08-19T07:17:40.479Z,72.76
2017-08-19T07:20:07.871Z,72.15
2017-08-19T07:22:35.280Z,72.01
2017-08-19T07:25:02.678Z,71.27
2017-08-19T07:27:30.079Z,71.96
2017-08-19T07:29:57.471Z,71.61
2017-08-19T07:32:24.870Z,71.51
2017-08-19T07:34:52.283Z,71.35
2017-08-19T07:37:19.684Z,71.66
2017-08-19T07:39:47.079Z,71.15
2017-08-19T07:42:14.485Z,71.35
2017-08-19T07:44:41.879Z,70.63
2017-08-19T07:47:09.274Z,70.65
2017-08-19T07:49:36.666Z,70.09
2017-08-19T07:52:04.072Z,69.28
2017-08-19T07:54:31.470Z,69.55
2017-08-19T07:56:58.879Z,69.25
2017-08-19T07:59:26.272Z,69.83
2017-08-19T08:01:53.662Z,69.46
2017-08-19T08:04:21.071Z,69.25
2017-08-19T08:06:48.463Z,68.42
2017-08-19T08:09:15.855Z,66.67
2017-08-19T08:11:43.250Z,66.84
2017-08-19T08:14:10.698Z,66.99
2017-08-19T08:16:38.094Z,65.92
2017-08-19T08:19:05.494Z,66.34
2017-08-19T08:21:32.886Z,66.08
2017-08-19T08:24:00.308Z,64.70
2017-08-19T08:26:27.694Z,65.21
2017-08-19T08:28:55.094Z,64.74
2017-08-19T08:31:22.506Z,65.09
2017-08-19T08:33:49.894Z,65.87
2017-08-19T08:36:17.286Z,64.82
2017-08-19T08:38:44.703Z,64.60
2017-08-19T08:41:12.098Z,63.44
2017-08-19T08:43:39.504Z,62.73
2017-08-19T08:46:06.906Z,63.94
2017-08-19T08:48:34.329Z,63.94
2017-08-19T08:51:02.259Z,62.04
2017-08-19T08:53:29.654Z,61.76
2017-08-19T08:55:57.064Z,61.70
2017-08-19T08:58:24.447Z,61.95
2017-08-19T09:00:51.866Z,62.67
2017-08-19T09:03:19.263Z,61.80
2017-08-19T09:05:46.676Z,62.08
2017-08-19T09:08:14.075Z,62.68
2017-08-19T09:10:41.488Z,62.37
2017-08-19T09:13:08.872Z,61.99
2017-08-19T09:15:36.275Z,62.54
2017-08-19T09:18:03.685Z,62.80
2017-08-19T09:20:31.315Z,63.01
2017-08-19T09:22:58.702Z,62.28
2017-08-19T09:25:26.122Z,61.50
2017-08-19T09:27:53.527Z,62.67
2017-08-19T09:30:20.943Z,63.00
2017-08-19T09:32:48.339Z,62.92
2017-08-19T09:35:15.742Z,63.78
2017-08-19T09:37:43.235Z,63.31
2017-08-19T09:40:10.621Z,63.64
2017-08-19T09:42:38.004Z,63.54
2017-08-19T09:45:05.399Z,63.95
2017-08-19T09:47:32.807Z,64.22
2017-08-19T09:50:00.200Z,64.58
2017-08-19T09:52:27.603Z,65.20
2017-08-19T09:54:55.008Z,65.58
2017-08-19T09:57:23.195Z,65.51
2017-08-19T09:59:50.622Z,64.97
2017-08-19T10:02:18.003Z,65.26
2017-08-19T10:04:45.390Z,65.49
2017-08-19T10:07:12.795Z,64.11
2017-08-19T10:09:54.931Z,64.47
2017-08-19T10:12:22.330Z,63.90
2017-08-19T10:14:49.724Z,63.40
2017-08-19T10:17:17.127Z,63.49
2017-08-19T10:19:44.514Z,62.68
2017-08-19T10:22:11.919Z,61.94
2017-08-19T10:24:39.313Z,61.22
2017-08-19T10:27:06.719Z,61.50
2017-08-19T10:29:34.111Z,61.12
2017-08-19T10:32:01.540Z,60.85
2017-08-19T10:34:28.927Z,61.23
2017-08-19T10:36:56.330Z,61.91
2017-08-19T10:39:23.726Z,62.25
2017-08-19T10:41:51.139Z,61.77
2017-08-19T10:44:18.538Z,61.91
2017-08-19T10:46:45.921Z,61.96
2017-08-19T10:49:13.331Z,60.96
2017-08-19T10:51:40.722Z,62.15
2017-08-19T10:54:08.134Z,60.90
2017-08-19T10:56:35.537Z,60.71
2017-08-19T10:59:02.941Z,61.38
2017-08-19T11:01:30.347Z,60.33
2017-08-19T11:03:57.771Z,60.42
2017-08-19T11:06:25.154Z,59.85
2017-08-19T11:08:52.548Z,60.83
2017-08-19T11:11:19.948Z,61.60
2017-08-19T11:13:47.358Z,61.21
2017-08-19T11:16:14.743Z,61.00
2017-08-19T11:18:42.225Z,61.48
2017-08-19T11:21:09.600Z,61.63
2017-08-19T11:23:37.003Z,61.87
2017-08-19T11:26:04.392Z,61.15
2017-08-19T11:28:31.823Z,61.26
2017-08-19T11:30:59.207Z,60.27
2017-08-19T11:33:26.598Z,60.66
2017-08-19T11:35:54.006Z,61.14
2017-08-19T11:38:21.406Z,60.51
2017-08-19T11:40:48.811Z,60.74
2017-08-19T11:43:16.498Z,60.79
2017-08-19T11:45:43.909Z,60.69
2017-08-19T11:48:11.330Z,60.46
2017-08-19T11:50:38.723Z,58.58
2017-08-19T11:53:06.107Z,58.97
2017-08-19T11:55:33.498Z,58.89
2017-08-19T11:58:00.913Z,58.62
2017-08-19T12:00:28.333Z,59.07
2017-08-19T12:02:55.724Z,59.73
2017-08-19T12:05:23.136Z,59.39
2017-08-19T12:07:50.526Z,59.40
2017-08-19T12:10:17.970Z,60.22
2017-08-19T12:12:45.359Z,60.84
2017-08-19T12:15:12.815Z,60.79
2017-08-19T12:17:40.290Z,60.61
2017-08-19T12:20:07.878Z,61.86
2017-08-19T12:22:36.840Z,61.47
2017-08-19T12:25:04.312Z,60.85
2017-08-19T12:27:31.703Z,59.72
2017-08-19T12:30:02.501Z,59.34
2017-08-19T12:32:30.583Z,59.12
2017-08-19T12:34:57.974Z,59.09
2017-08-19T12:37:25.391Z,58.15
2017-08-19T12:39:52.786Z,59.15
2017-08-19T12:42:20.228Z,59.37
2017-08-19T12:44:47.595Z,58.80
2017-08-19T12:47:14.996Z,58.57
2017-08-19T12:49:42.861Z,57.50
2017-08-19T12:52:10.645Z,55.70
2017-08-19T12:57:28.383Z,55.48
2017-08-19T12:59:55.819Z,55.08
2017-08-19T13:02:23.391Z,55.23
2017-08-19T13:04:51.195Z,55.49
2017-08-19T13:07:18.638Z,56.45
2017-08-19T13:09:46.022Z,56.23
2017-08-19T13:12:13.435Z,55.95
2017-08-19T13:14:40.839Z,56.18
2017-08-19T13:17:08.224Z,56.12
2017-08-19T13:19:35.612Z,56.92
2017-08-19T13:22:03.007Z,60.34
2017-08-19T13:24:30.420Z,61.84
2017-08-19T13:26:58.019Z,63.14
2017-08-19T13:29:25.420Z,63.31
2017-08-19T13:31:52.810Z,64.13
2017-08-19T13:34:20.265Z,64.46
2017-08-19T13:36:47.655Z,65.64
2017-08-19T13:39:15.047Z,65.08
2017-08-19T13:41:42.435Z,66.33
2017-08-19T13:44:09.837Z,64.74
2017-08-19T13:46:37.226Z,64.17
2017-08-19T13:49:04.629Z,64.59
2017-08-19T13:51:32.011Z,64.06
2017-08-19T13:53:59.407Z,65.28
2017-08-19T13:56:26.799Z,63.77
2017-08-19T13:58:54.214Z,63.61
2017-08-19T14:01:21.635Z,63.78
2017-08-19T14:03:49.031Z,63.75
2017-08-19T14:06:16.429Z,64.17
2017-08-19T14:08:43.832Z,62.90
2017-08-19T14:11:11.240Z,64.01
2017-08-19T14:13:38.629Z,64.29
2017-08-19T14:16:06.028Z,64.85
2017-08-19T14:18:33.447Z,64.70
2017-08-19T14:21:00.838Z,63.14
2017-08-19T14:23:28.230Z,63.04
2017-08-19T14:25:55.628Z,63.93
2017-08-19T14:28:23.026Z,64.43
2017-08-19T14:30:50.535Z,62.66
2017-08-19T14:33:17.931Z,63.69
2017-08-19T14:35:45.319Z,62.87
2017-08-19T14:38:12.931Z,61.52
2017-08-19T14:40:40.327Z,62.06
2017-08-19T14:43:07.714Z,61.23
2017-08-19T14:45:35.115Z,61.11
2017-08-19T14:48:02.503Z,62.11
2017-08-19T14:50:29.910Z,62.33
2017-08-19T14:52:57.315Z,60.72
2017-08-19T14:55:24.726Z,59.90
2017-08-19T14:57:52.114Z,60.60
2017-08-19T15:00:19.511Z,62.18
2017-08-19T15:02:46.907Z,62.02
2017-08-19T15:05:14.316Z,60.42
2017-08-19T15:07:41.707Z,59.77
2017-08-19T15:10:09.101Z,61.04
2017-08-19T15:12:36.483Z,60.78
2017-08-19T15:15:03.871Z,60.78
2017-08-19T15:17:31.908Z,60.53
2017-08-19T15:19:59.303Z,60.59
2017-08-19T15:22:26.723Z,59.54
2017-08-19T15:24:54.112Z,60.73
2017-08-19T15:27:21.506Z,59.15
2017-08-19T15:29:48.908Z,59.23
2017-08-19T15:32:16.299Z,59.19
2017-08-19T15:34:43.703Z,59.45
2017-08-19T15:37:11.098Z,58.92
2017-08-19T15:39:38.507Z,59.76
2017-08-19T15:42:05.907Z,60.16
2017-08-19T15:44:33.308Z,59.40
2017-08-19T15:47:00.910Z,58.93
2017-08-19T15:49:28.303Z,58.51
2017-08-19T15:51:55.715Z,59.86
2017-08-19T15:54:23.103Z,58.05
2017-08-19T15:56:50.507Z,56.75
2017-08-19T15:59:17.938Z,57.29
2017-08-19T16:01:45.335Z,57.46
2017-08-19T16:04:12.741Z,58.13
2017-08-19T16:06:40.139Z,57.60
2017-08-19T16:09:08.067Z,57.53
2017-08-19T16:11:35.447Z,57.50
2017-08-19T16:14:02.888Z,57.78
2017-08-19T16:16:30.284Z,55.66
2017-08-19T16:18:57.675Z,55.64
2017-08-19T16:21:25.065Z,55.10
2017-08-19T16:23:52.464Z,55.15
2017-08-19T16:26:19.963Z,55.48
2017-08-19T16:28:47.352Z,55.21
2017-08-19T16:31:14.768Z,54.76
2017-08-19T16:33:42.186Z,55.03
2017-08-19T16:36:09.579Z,55.17
2017-08-19T16:38:36.975Z,55.10
2017-08-19T16:41:04.368Z,55.52
2017-08-19T16:43:31.763Z,56.34
2017-08-19T16:45:59.156Z,56.74
2017-08-19T16:48:26.554Z,56.23
2017-08-19T16:50:53.940Z,56.41
2017-08-19T16:53:21.318Z,56.53
2017-08-19T16:55:48.726Z,57.17
2017-08-19T16:58:16.104Z,57.20
2017-08-19T17:00:43.503Z,57.34
2017-08-19T17:03:10.899Z,57.61
2017-08-19T17:05:38.297Z,57.49
2017-08-19T17:08:05.690Z,57.02
2017-08-19T17:10:33.309Z,57.49
2017-08-19T17:13:00.692Z,57.49
2017-08-19T17:15:28.095Z,57.52
2017-08-19T17:17:55.476Z,57.76
2017-08-19T17:20:22.876Z,57.94
2017-08-19T17:22:50.267Z,58.16
2017-08-19T17:25:17.678Z,58.14
2017-08-19T17:27:45.067Z,58.36
2017-08-19T17:30:12.466Z,58.34
2017-08-19T17:32:39.856Z,58.07
2017-08-19T17:35:07.246Z,58.81
2017-08-19T17:37:34.852Z,59.95
2017-08-19T17:40:02.253Z,61.89
2017-08-19T17:42:29.652Z,63.47
2017-08-19T17:44:57.034Z,65.29
2017-08-19T17:47:24.431Z,66.16
2017-08-19T17:49:51.828Z,66.07
2017-08-19T17:52:19.219Z,65.28
2017-08-19T17:54:46.610Z,64.48
2017-08-19T17:57:14.007Z,65.43
2017-08-19T17:59:41.400Z,65.34
2017-08-19T18:02:08.802Z,65.82
2017-08-19T18:04:36.403Z,66.85
2017-08-19T18:07:04.508Z,66.36
2017-08-19T18:09:31.902Z,66.94
2017-08-19T18:11:59.306Z,66.30
2017-08-19T18:14:26.727Z,65.54
2017-08-19T18:16:54.117Z,65.50
2017-08-19T18:19:21.512Z,64.87
2017-08-19T18:21:48.996Z,64.83
2017-08-19T18:24:16.371Z,64.61
2017-08-19T18:26:43.772Z,63.88
2017-08-19T18:29:11.161Z,63.79
2017-08-19T18:31:38.555Z,63.44
2017-08-19T18:34:05.964Z,63.84
2017-08-19T18:36:33.376Z,64.33
2017-08-19T18:39:00.782Z,64.55
2017-08-19T18:41:28.199Z,65.38
2017-08-19T18:43:55.584Z,64.66
2017-08-19T18:46:22.982Z,65.17
2017-08-19T18:48:50.371Z,65.35
2017-08-19T18:51:17.769Z,66.56
2017-08-19T18:53:45.163Z,66.20
2017-08-19T18:56:12.564Z,65.35
2017-08-19T18:58:39.949Z,66.01
2017-08-19T19:01:07.350Z,66.48
2017-08-19T19:03:34.746Z,65.88
2017-08-19T19:06:02.137Z,65.82
2017-08-19T19:08:29.536Z,66.78
2017-08-19T19:10:56.924Z,66.40
2017-08-19T19:13:24.327Z,66.77
2017-08-19T19:15:51.717Z,66.26
2017-08-19T19:18:19.115Z,66.34
2017-08-19T19:20:46.716Z,67.24
2017-08-19T19:23:14.111Z,67.21
2017-08-19T19:25:41.495Z,67.04
2017-08-19T19:28:08.887Z,67.38
2017-08-19T19:30:36.282Z,67.46
2017-08-19T19:33:03.679Z,67.92
2017-08-19T19:35:31.070Z,68.03
2017-08-19T19:37:58.468Z,68.03
2017-08-19T19:40:25.855Z,68.25
2017-08-19T19:42:53.268Z,68.31
2017-08-19T19:45:20.871Z,67.06
2017-08-19T19:47:48.281Z,67.25
2017-08-19T19:50:15.671Z,66.39
2017-08-19T19:52:43.060Z,66.95
2017-08-19T19:55:10.455Z,66.87
2017-08-19T19:57:37.835Z,66.71
2017-08-19T20:00:05.247Z,66.48
2017-08-19T20:02:32.847Z,66.63
2017-08-19T20:05:00.239Z,66.46
2017-08-19T20:07:27.628Z,65.71
2017-08-19T20:09:55.031Z,65.68
2017-08-19T20:12:22.433Z,65.64
2017-08-19T20:14:49.825Z,65.76
2017-08-19T20:17:17.207Z,66.43
2017-08-19T20:19:44.606Z,66.11
2017-08-19T20:22:11.991Z,66.26
2017-08-19T20:24:39.396Z,65.45
2017-08-19T20:27:06.825Z,65.64
2017-08-19T20:29:34.419Z,65.21
2017-08-19T20:32:02.026Z,65.46
2017-08-19T20:34:29.422Z,65.52
2017-08-19T20:36:56.822Z,65.83
2017-08-19T20:39:24.215Z,66.27
2017-08-19T20:41:51.609Z,66.89
2017-08-19T20:44:18.995Z,66.38
2017-08-19T20:46:46.379Z,66.01
2017-08-19T20:49:13.780Z,66.15
2017-08-19T20:54:16.148Z,65.06
2017-08-19T20:56:43.556Z,65.03
2017-08-19T20:59:10.943Z,65.00
2017-08-19T21:01:38.334Z,65.19
2017-08-19T21:04:05.744Z,65.04
2017-08-19T21:06:33.204Z,64.58
2017-08-19T21:09:00.607Z,64.53
2017-08-19T21:11:27.995Z,64.18
2017-08-19T21:13:55.433Z,64.09
2017-08-19T21:16:22.825Z,64.18
2017-08-19T21:18:50.284Z,64.42
2017-08-19T21:21:17.655Z,64.45
2017-08-19T21:23:45.048Z,64.37
2017-08-19T21:26:12.447Z,64.20
2017-08-19T21:28:39.855Z,64.08
2017-08-19T21:31:07.231Z,64.41
2017-08-19T21:33:34.615Z,64.62
2017-08-19T21:36:02.231Z,64.69
2017-08-19T21:38:29.625Z,64.29
2017-08-19T21:40:57.027Z,64.73
2017-08-19T21:43:24.424Z,65.01
2017-08-19T21:45:51.839Z,64.61
2017-08-19T21:48:19.232Z,64.77
2017-08-19T21:50:46.611Z,64.96
2017-08-19T21:53:14.009Z,65.74
2017-08-19T21:55:41.407Z,65.57
2017-08-19T21:58:08.799Z,65.53
2017-08-19T22:00:36.188Z,65.70
2017-08-19T22:03:03.579Z,66.16
2017-08-19T22:05:31.039Z,65.90
2017-08-19T22:07:58.430Z,65.96
2017-08-19T22:10:25.822Z,65.60
2017-08-19T22:12:53.215Z,65.88
2017-08-19T22:15:20.599Z,65.50
2017-08-19T22:17:47.994Z,65.87
2017-08-19T22:20:15.473Z,66.02
2017-08-19T22:22:42.843Z,66.13
2017-08-19T22:25:10.231Z,65.62
2017-08-19T22:27:37.647Z,65.67
2017-08-19T22:30:05.106Z,65.76
2017-08-19T22:32:32.484Z,65.34
2017-08-19T22:34:59.887Z,65.59
2017-08-19T22:37:27.270Z,65.60
2017-08-19T22:39:54.666Z,66.11
2017-08-19T22:42:22.062Z,65.75
2017-08-19T22:44:49.454Z,65.89
2017-08-19T22:47:17.047Z,65.69
2017-08-19T22:49:44.544Z,65.64
2017-08-19T22:52:11.923Z,66.14
2017-08-19T22:54:39.310Z,66.42
2017-08-19T22:57:06.699Z,66.54
2017-08-19T22:59:34.306Z,66.94
2017-08-19T23:02:01.712Z,66.39
2017-08-19T23:04:29.107Z,66.80
2017-08-19T23:06:56.496Z,66.87
2017-08-19T23:09:23.896Z,66.69
2017-08-19T23:11:51.284Z,66.59
2017-08-19T23:14:18.670Z,66.17
2017-08-19T23:16:46.059Z,67.06
2017-08-19T23:19:13.450Z,66.89
2017-08-19T23:21:40.855Z,66.96
2017-08-19T23:24:08.255Z,66.79
2017-08-19T23:26:35.656Z,66.87
2017-08-19T23:29:03.063Z,66.89
2017-08-19T23:31:30.471Z,66.94
2017-08-19T23:33:58.763Z,66.66
2017-08-19T23:36:26.159Z,67.27
2017-08-19T23:38:53.554Z,66.73
2017-08-19T23:41:20.951Z,67.08
2017-08-19T23:43:48.327Z,67.41
2017-08-19T23:46:15.723Z,67.32
2017-08-19T23:48:43.335Z,67.08
2017-08-19T23:51:10.740Z,67.05
2017-08-19T23:53:38.135Z,67.39
2017-08-19T23:56:05.532Z,67.27
2017-08-19T23:58:32.927Z,67.31
